sensor_id;sensor_type;location;lat;lon;timestamp;pressure;altitude;pressure_sealevel;temperature;humidity
71915;BME280;60387;49.994;14.660;2022-09-09T00:04:03;97450.91;;;17.00;67.04
71915;BME280;60387;49.994;14.660;2022-09-09T00:07:01;97458.31;;;16.99;66.77
71915;BME280;60387;49.994;14.660;2022-09-09T00:09:47;97440.53;;;16.93;67.02
71915;BME280;60387;49.994;14.660;2022-09-09T00:12:27;97447.25;;;16.96;68.15
71915;BME280;60387;49.994;14.660;2022-09-09T00:15:12;97452.72;;;16.96;67.81
71915;BME280;60387;49.994;14.660;2022-09-09T00:20:42;97444.06;;;16.94;67.28
71915;BME280;60387;49.994;14.660;2022-09-09T00:23:28;97444.06;;;16.94;67.86
71915;BME280;60387;49.994;14.660;2022-09-09T00:26:09;97446.38;;;16.92;67.66
71915;BME280;60387;49.994;14.660;2022-09-09T00:29:10;97451.84;;;16.92;67.83
71915;BME280;60387;49.994;14.660;2022-09-09T00:31:46;97448.63;;;16.90;68.18
71915;BME280;60387;49.994;14.660;2022-09-09T00:34:23;97452.53;;;16.89;67.31
71915;BME280;60387;49.994;14.660;2022-09-09T00:36:57;97448.63;;;16.90;68.06
71915;BME280;60387;49.994;14.660;2022-09-09T00:39:36;97450.22;;;16.91;67.92
71915;BME280;60387;49.994;14.660;2022-09-09T00:42:24;97453.78;;;16.91;67.62
71915;BME280;60387;49.994;14.660;2022-09-09T00:45:25;97459.59;;;16.90;67.87
71915;BME280;60387;49.994;14.660;2022-09-09T00:48:10;97451.75;;;16.88;67.72
71915;BME280;60387;49.994;14.660;2022-09-09T00:56:14;97466.56;;;16.87;67.83
71915;BME280;60387;49.994;14.660;2022-09-09T00:59:01;97455.41;;;16.80;68.08
71915;BME280;60387;49.994;14.660;2022-09-09T01:01:38;97469.66;;;16.86;67.98
71915;BME280;60387;49.994;14.660;2022-09-09T01:04:16;97469.97;;;16.84;68.24
71915;BME280;60387;49.994;14.660;2022-09-09T01:06:59;97477.84;;;16.86;68.20
71915;BME280;60387;49.994;14.660;2022-09-09T01:09:50;97473.53;;;16.85;68.69
71915;BME280;60387;49.994;14.660;2022-09-09T01:12:42;97468.06;;;16.85;68.22
71915;BME280;60387;49.994;14.660;2022-09-09T01:15:24;97473.09;;;16.83;68.16
71915;BME280;60387;49.994;14.660;2022-09-09T01:18:06;97471.94;;;16.84;67.73
71915;BME280;60387;49.994;14.660;2022-09-09T01:20:55;97471.13;;;16.83;67.92
71915;BME280;60387;49.994;14.660;2022-09-09T01:23:41;97474.69;;;16.84;68.38
71915;BME280;60387;49.994;14.660;2022-09-09T01:26:25;97458.94;;;16.81;67.74
71915;BME280;60387;49.994;14.660;2022-09-09T01:29:00;97462.81;;;16.80;68.06
71915;BME280;60387;49.994;14.660;2022-09-09T01:31:51;97465.56;;;16.80;67.89
71915;BME280;60387;49.994;14.660;2022-09-09T01:34:29;97462.81;;;16.80;68.11
71915;BME280;60387;49.994;14.660;2022-09-09T01:37:06;97456.47;;;16.76;68.00
71915;BME280;60387;49.994;14.660;2022-09-09T01:39:42;97463.06;;;16.75;68.18
71915;BME280;60387;49.994;14.660;2022-09-09T01:42:17;97453.72;;;16.76;67.97
71915;BME280;60387;49.994;14.660;2022-09-09T01:44:50;97454.50;;;16.76;68.41
71915;BME280;60387;49.994;14.660;2022-09-09T01:47:24;97453.34;;;16.77;67.93
71915;BME280;60387;49.994;14.660;2022-09-09T01:49:58;97460.41;;;16.78;68.13
71915;BME280;60387;49.994;14.660;2022-09-09T01:52:34;97458.38;;;16.75;68.22
71915;BME280;60387;49.994;14.660;2022-09-09T01:55:08;97465.09;;;16.78;67.81
71915;BME280;60387;49.994;14.660;2022-09-09T02:00:29;97457.59;;;16.75;67.83
71915;BME280;60387;49.994;14.660;2022-09-09T02:03:18;97451.66;;;16.73;67.72
71915;BME280;60387;49.994;14.660;2022-09-09T02:08:55;97456.00;;;16.74;67.86
71915;BME280;60387;49.994;14.660;2022-09-09T02:11:30;97451.22;;;16.71;68.02
71915;BME280;60387;49.994;14.660;2022-09-09T02:14:10;97453.97;;;16.71;68.08
71915;BME280;60387;49.994;14.660;2022-09-09T02:16:56;97449.97;;;16.68;67.84
71915;BME280;60387;49.994;14.660;2022-09-09T02:19:36;97452.25;;;16.66;67.97
71915;BME280;60387;49.994;14.660;2022-09-09T02:22:11;97457.72;;;16.66;67.43
71915;BME280;60387;49.994;14.660;2022-09-09T02:24:44;97454.13;;;16.62;68.04
71915;BME280;60387;49.994;14.660;2022-09-09T02:27:18;97452.53;;;16.61;68.17
71915;BME280;60387;49.994;14.660;2022-09-09T02:29:52;97449.22;;;16.56;67.95
71915;BME280;60387;49.994;14.660;2022-09-09T02:32:27;97455.16;;;16.58;68.00
71915;BME280;60387;49.994;14.660;2022-09-09T02:35:23;97458.56;;;16.55;68.93
71915;BME280;60387;49.994;14.660;2022-09-09T02:38:02;97453.53;;;16.57;68.89
71915;BME280;60387;49.994;14.660;2022-09-09T02:40:36;97451.84;;;16.52;68.33
71915;BME280;60387;49.994;14.660;2022-09-09T02:43:10;97454.50;;;16.49;68.04
71915;BME280;60387;49.994;14.660;2022-09-09T02:45:51;97463.13;;;16.51;68.24
71915;BME280;60387;49.994;14.660;2022-09-09T02:51:14;97463.81;;;16.48;68.82
71915;BME280;60387;49.994;14.660;2022-09-09T02:54:04;97457.13;;;16.45;68.84
71915;BME280;60387;49.994;14.660;2022-09-09T02:56:46;97452.44;;;16.46;68.75
71915;BME280;60387;49.994;14.660;2022-09-09T02:59:22;97455.97;;;16.46;68.50
71915;BME280;60387;49.994;14.660;2022-09-09T03:01:57;97453.56;;;16.45;68.22
71915;BME280;60387;49.994;14.660;2022-09-09T03:04:31;97448.09;;;16.45;68.33
71915;BME280;60387;49.994;14.660;2022-09-09T03:07:04;97455.16;;;16.46;68.51
71915;BME280;60387;49.994;14.660;2022-09-09T03:09:37;97461.78;;;16.45;68.35
71915;BME280;60387;49.994;14.660;2022-09-09T03:12:11;97462.22;;;16.47;68.20
71915;BME280;60387;49.994;14.660;2022-09-09T03:14:44;97474.31;;;16.46;68.23
71915;BME280;60387;49.994;14.660;2022-09-09T03:17:17;97466.78;;;16.43;68.52
71915;BME280;60387;49.994;14.660;2022-09-09T03:19:51;97469.41;;;16.39;68.50
71915;BME280;60387;49.994;14.660;2022-09-09T03:22:24;97467.84;;;16.38;68.56
71915;BME280;60387;49.994;14.660;2022-09-09T03:24:58;97456.31;;;16.33;68.51
71915;BME280;60387;49.994;14.660;2022-09-09T03:27:31;97461.41;;;16.34;68.63
71915;BME280;60387;49.994;14.660;2022-09-09T03:30:05;97465.72;;;16.35;68.68
71915;BME280;60387;49.994;14.660;2022-09-09T03:32:38;97468.03;;;16.33;68.86
71915;BME280;60387;49.994;14.660;2022-09-09T03:35:11;97469.97;;;16.33;68.43
71915;BME280;60387;49.994;14.660;2022-09-09T03:37:45;97471.91;;;16.32;68.69
71915;BME280;60387;49.994;14.660;2022-09-09T03:40:18;97463.16;;;16.27;68.47
71915;BME280;60387;49.994;14.660;2022-09-09T03:42:51;97471.34;;;16.27;68.47
71915;BME280;60387;49.994;14.660;2022-09-09T03:45:25;97474.06;;;16.27;68.78
71915;BME280;60387;49.994;14.660;2022-09-09T03:47:58;97467.81;;;16.26;68.80
71915;BME280;60387;49.994;14.660;2022-09-09T03:50:34;97463.94;;;16.27;69.00
71915;BME280;60387;49.994;14.660;2022-09-09T03:53:07;97462.69;;;16.25;68.51
71915;BME280;60387;49.994;14.660;2022-09-09T03:55:52;97463.94;;;16.27;68.57
71915;BME280;60387;49.994;14.660;2022-09-09T03:58:26;97465.88;;;16.27;68.34
71915;BME280;60387;49.994;14.660;2022-09-09T04:01:02;97461.56;;;16.26;68.82
71915;BME280;60387;49.994;14.660;2022-09-09T04:03:35;97456.75;;;16.23;68.74
71915;BME280;60387;49.994;14.660;2022-09-09T04:06:10;97460.75;;;16.25;68.84
71915;BME280;60387;49.994;14.660;2022-09-09T04:08:44;97449.25;;;16.20;68.75
71915;BME280;60387;49.994;14.660;2022-09-09T04:11:17;97453.56;;;16.21;68.86
71915;BME280;60387;49.994;14.660;2022-09-09T04:13:50;97457.22;;;16.25;68.81
71915;BME280;60387;49.994;14.660;2022-09-09T04:16:24;97462.22;;;16.23;68.62
71915;BME280;60387;49.994;14.660;2022-09-09T04:18:57;97452.22;;;16.27;68.76
71915;BME280;60387;49.994;14.660;2022-09-09T04:21:30;97454.25;;;16.30;68.74
71915;BME280;60387;49.994;14.660;2022-09-09T04:24:04;97453.09;;;16.31;69.08
71915;BME280;60387;49.994;14.660;2022-09-09T04:26:38;97446.41;;;16.28;68.81
71915;BME280;60387;49.994;14.660;2022-09-09T04:29:11;97460.25;;;16.35;68.95
71915;BME280;60387;49.994;14.660;2022-09-09T04:31:44;97463.16;;;16.39;68.78
71915;BME280;60387;49.994;14.660;2022-09-09T04:34:18;97458.50;;;16.39;68.89
71915;BME280;60387;49.994;14.660;2022-09-09T04:36:51;97465.97;;;16.42;68.78
71915;BME280;60387;49.994;14.660;2022-09-09T04:39:24;97476.38;;;16.49;69.09
71915;BME280;60387;49.994;14.660;2022-09-09T04:41:57;97461.44;;;16.46;68.60
71915;BME280;60387;49.994;14.660;2022-09-09T04:44:31;97473.97;;;16.47;68.74
71915;BME280;60387;49.994;14.660;2022-09-09T04:47:04;97475.34;;;16.53;68.51
71915;BME280;60387;49.994;14.660;2022-09-09T04:49:37;97469.50;;;16.55;68.46
71915;BME280;60387;49.994;14.660;2022-09-09T04:52:10;97464.13;;;16.58;68.45
71915;BME280;60387;49.994;14.660;2022-09-09T04:54:44;97479.72;;;16.70;68.87
71915;BME280;60387;49.994;14.660;2022-09-09T04:57:17;97475.94;;;16.74;68.66
71915;BME280;60387;49.994;14.660;2022-09-09T04:59:50;97469.78;;;16.77;68.45
71915;BME280;60387;49.994;14.660;2022-09-09T05:02:23;97472.28;;;16.82;68.63
71915;BME280;60387;49.994;14.660;2022-09-09T05:04:57;97475.13;;;16.86;68.66
71915;BME280;60387;49.994;14.660;2022-09-09T05:07:30;97474.41;;;16.89;68.80
71915;BME280;60387;49.994;14.660;2022-09-09T05:10:04;97469.75;;;16.89;68.37
71915;BME280;60387;49.994;14.660;2022-09-09T05:12:37;97460.28;;;16.87;68.38
71915;BME280;60387;49.994;14.660;2022-09-09T05:15:10;97474.63;;;16.96;68.20
71915;BME280;60387;49.994;14.660;2022-09-09T05:17:44;97473.13;;;16.98;68.17
71915;BME280;60387;49.994;14.660;2022-09-09T05:20:17;97477.56;;;17.03;68.13
71915;BME280;60387;49.994;14.660;2022-09-09T05:22:53;97475.41;;;17.24;67.85
71915;BME280;60387;49.994;14.660;2022-09-09T05:25:26;97475.06;;;17.53;68.00
71915;BME280;60387;49.994;14.660;2022-09-09T05:28:00;97481.97;;;17.93;67.75
71915;BME280;60387;49.994;14.660;2022-09-09T05:30:33;97479.13;;;18.21;66.71
71915;BME280;60387;49.994;14.660;2022-09-09T05:33:07;97483.09;;;18.39;66.51
71915;BME280;60387;49.994;14.660;2022-09-09T05:35:40;97482.31;;;18.38;66.16
71915;BME280;60387;49.994;14.660;2022-09-09T05:38:13;97486.72;;;18.43;65.45
71915;BME280;60387;49.994;14.660;2022-09-09T05:40:47;97480.00;;;18.40;65.92
71915;BME280;60387;49.994;14.660;2022-09-09T05:43:20;97477.19;;;18.37;66.12
71915;BME280;60387;49.994;14.660;2022-09-09T05:46:05;97476.81;;;18.38;66.13
71915;BME280;60387;49.994;14.660;2022-09-09T05:48:44;97481.59;;;18.41;66.04
71915;BME280;60387;49.994;14.660;2022-09-09T05:51:20;97488.69;;;18.42;65.92
71915;BME280;60387;49.994;14.660;2022-09-09T05:53:54;97492.56;;;18.41;66.12
71915;BME280;60387;49.994;14.660;2022-09-09T05:56:28;97480.72;;;18.37;65.94
71915;BME280;60387;49.994;14.660;2022-09-09T05:59:02;97491.41;;;18.42;66.08
71915;BME280;60387;49.994;14.660;2022-09-09T06:01:36;97491.84;;;18.44;65.88
71915;BME280;60387;49.994;14.660;2022-09-09T06:04:09;97501.31;;;18.47;65.82
71915;BME280;60387;49.994;14.660;2022-09-09T06:06:42;97509.97;;;18.49;66.07
71915;BME280;60387;49.994;14.660;2022-09-09T06:09:16;97511.22;;;18.51;66.02
71915;BME280;60387;49.994;14.660;2022-09-09T06:11:49;97515.97;;;18.54;66.28
71915;BME280;60387;49.994;14.660;2022-09-09T06:14:22;97524.38;;;18.61;65.68
71915;BME280;60387;49.994;14.660;2022-09-09T06:16:55;97512.25;;;18.62;65.62
71915;BME280;60387;49.994;14.660;2022-09-09T06:19:29;97508.28;;;18.60;65.31
71915;BME280;60387;49.994;14.660;2022-09-09T06:22:02;97514.66;;;18.64;65.69
71915;BME280;60387;49.994;14.660;2022-09-09T06:24:35;97518.84;;;18.77;65.76
71915;BME280;60387;49.994;14.660;2022-09-09T06:27:09;97514.84;;;18.90;65.78
71915;BME280;60387;49.994;14.660;2022-09-09T06:29:42;97522.22;;;19.05;65.38
71915;BME280;60387;49.994;14.660;2022-09-09T06:32:15;97516.16;;;19.15;65.16
71915;BME280;60387;49.994;14.660;2022-09-09T06:34:48;97515.88;;;19.20;64.84
71915;BME280;60387;49.994;14.660;2022-09-09T06:37:22;97516.34;;;19.22;64.61
71915;BME280;60387;49.994;14.660;2022-09-09T06:39:55;97522.69;;;19.26;64.70
71915;BME280;60387;49.994;14.660;2022-09-09T06:42:28;97526.94;;;19.23;64.13
71915;BME280;60387;49.994;14.660;2022-09-09T06:45:01;97524.13;;;19.20;64.37
71915;BME280;60387;49.994;14.660;2022-09-09T06:47:35;97522.69;;;19.26;64.15
71915;BME280;60387;49.994;14.660;2022-09-09T06:50:08;97526.06;;;19.38;64.64
71915;BME280;60387;49.994;14.660;2022-09-09T06:52:41;97525.03;;;19.65;64.48
71915;BME280;60387;49.994;14.660;2022-09-09T06:55:15;97532.66;;;19.94;64.27
71915;BME280;60387;49.994;14.660;2022-09-09T06:57:48;97528.38;;;20.19;64.05
71915;BME280;60387;49.994;14.660;2022-09-09T07:00:21;97519.78;;;20.46;63.18
71915;BME280;60387;49.994;14.660;2022-09-09T07:02:54;97528.47;;;20.74;63.22
71915;BME280;60387;49.994;14.660;2022-09-09T07:05:28;97533.72;;;21.09;62.88
71915;BME280;60387;49.994;14.660;2022-09-09T07:08:01;97520.78;;;21.46;62.10
71915;BME280;60387;49.994;14.660;2022-09-09T07:10:37;97521.69;;;21.86;62.34
71915;BME280;60387;49.994;14.660;2022-09-09T07:13:10;97529.19;;;22.29;60.66
71915;BME280;60387;49.994;14.660;2022-09-09T07:15:44;97535.34;;;22.59;58.82
71915;BME280;60387;49.994;14.660;2022-09-09T07:18:17;97539.47;;;22.86;59.09
71915;BME280;60387;49.994;14.660;2022-09-09T07:20:54;97527.06;;;23.20;59.68
71915;BME280;60387;49.994;14.660;2022-09-09T07:23:29;97535.94;;;23.60;58.68
71915;BME280;60387;49.994;14.660;2022-09-09T07:26:08;97542.41;;;23.99;58.10
71915;BME280;60387;49.994;14.660;2022-09-09T07:28:41;97536.91;;;24.34;56.96
71915;BME280;60387;49.994;14.660;2022-09-09T07:31:16;97546.03;;;24.70;56.32
71915;BME280;60387;49.994;14.660;2022-09-09T07:33:49;97524.19;;;25.03;54.88
71915;BME280;60387;49.994;14.660;2022-09-09T07:36:37;97523.00;;;25.22;54.31
71915;BME280;60387;49.994;14.660;2022-09-09T07:39:12;97532.06;;;25.33;54.07
71915;BME280;60387;49.994;14.660;2022-09-09T07:41:47;97536.00;;;25.46;52.37
71915;BME280;60387;49.994;14.660;2022-09-09T07:44:22;97529.59;;;25.56;50.30
71915;BME280;60387;49.994;14.660;2022-09-09T07:46:56;97532.34;;;25.66;51.45
71915;BME280;60387;49.994;14.660;2022-09-09T07:49:29;97531.53;;;25.66;51.28
71915;BME280;60387;49.994;14.660;2022-09-09T07:52:03;97533.88;;;25.74;52.64
71915;BME280;60387;49.994;14.660;2022-09-09T07:54:36;97529.41;;;25.98;50.97
71915;BME280;60387;49.994;14.660;2022-09-09T07:57:09;97527.28;;;26.19;51.15
71915;BME280;60387;49.994;14.660;2022-09-09T07:59:43;97535.06;;;26.42;52.04
71915;BME280;60387;49.994;14.660;2022-09-09T08:02:16;97534.16;;;26.59;50.67
71915;BME280;60387;49.994;14.660;2022-09-09T08:04:49;97529.72;;;26.68;47.57
71915;BME280;60387;49.994;14.660;2022-09-09T08:07:22;97536.81;;;26.73;51.39
71915;BME280;60387;49.994;14.660;2022-09-09T08:09:56;97532.09;;;26.66;48.56
71915;BME280;60387;49.994;14.660;2022-09-09T08:12:29;97531.31;;;26.66;49.10
71915;BME280;60387;49.994;14.660;2022-09-09T08:15:02;97536.81;;;26.73;50.31
71915;BME280;60387;49.994;14.660;2022-09-09T08:17:36;97550.81;;;27.03;49.93
71915;BME280;60387;49.994;14.660;2022-09-09T08:20:09;97546.47;;;27.38;48.76
71915;BME280;60387;49.994;14.660;2022-09-09T08:22:42;97539.63;;;27.80;48.91
71915;BME280;60387;49.994;14.660;2022-09-09T08:25:16;97545.97;;;28.10;45.87
71915;BME280;60387;49.994;14.660;2022-09-09T08:27:49;97558.66;;;28.41;43.16
71915;BME280;60387;49.994;14.660;2022-09-09T08:30:22;97560.78;;;28.60;43.87
71915;BME280;60387;49.994;14.660;2022-09-09T08:32:55;97565.97;;;28.81;44.16
71915;BME280;60387;49.994;14.660;2022-09-09T08:35:29;97560.19;;;28.95;44.36
71915;BME280;60387;49.994;14.660;2022-09-09T08:38:02;97571.09;;;29.09;43.44
71915;BME280;60387;49.994;14.660;2022-09-09T08:40:38;97566.34;;;29.29;44.59
71915;BME280;60387;49.994;14.660;2022-09-09T08:43:14;97563.16;;;29.50;43.94
71915;BME280;60387;49.994;14.660;2022-09-09T08:46:15;97571.00;;;29.78;43.56
71915;BME280;60387;49.994;14.660;2022-09-09T08:48:57;97563.78;;;29.97;42.61
71915;BME280;60387;49.994;14.660;2022-09-09T08:51:33;97566.25;;;30.14;41.47
71915;BME280;60387;49.994;14.660;2022-09-09T08:54:08;97566.19;;;30.34;40.64
71915;BME280;60387;49.994;14.660;2022-09-09T08:56:42;97561.84;;;30.49;40.05
71915;BME280;60387;49.994;14.660;2022-09-09T08:59:17;97571.53;;;30.60;40.91
71915;BME280;60387;49.994;14.660;2022-09-09T09:02:14;97576.66;;;30.65;42.93
71915;BME280;60387;49.994;14.660;2022-09-09T09:04:51;97555.72;;;30.54;40.88
71915;BME280;60387;49.994;14.660;2022-09-09T09:10:38;97567.47;;;29.94;40.16
71915;BME280;60387;49.994;14.660;2022-09-09T09:13:18;97561.75;;;29.81;42.54
71915;BME280;60387;49.994;14.660;2022-09-09T09:15:57;97566.59;;;29.77;41.95
71915;BME280;60387;49.994;14.660;2022-09-09T09:18:31;97569.03;;;29.75;41.28
71915;BME280;60387;49.994;14.660;2022-09-09T09:24:42;97543.63;;;29.50;40.15
71915;BME280;60387;49.994;14.660;2022-09-09T09:33:01;97557.88;;;29.13;44.25
71915;BME280;60387;49.994;14.660;2022-09-09T09:35:35;97554.44;;;29.25;42.30
71915;BME280;60387;49.994;14.660;2022-09-09T09:38:20;97556.81;;;29.27;43.51
71915;BME280;60387;49.994;14.660;2022-09-09T09:40:55;97559.19;;;29.28;43.59
71915;BME280;60387;49.994;14.660;2022-09-09T09:43:36;97550.94;;;29.21;42.59
71915;BME280;60387;49.994;14.660;2022-09-09T09:46:21;97553.88;;;29.14;42.75
71915;BME280;60387;49.994;14.660;2022-09-09T09:49:03;97544.22;;;29.19;41.04
71915;BME280;60387;49.994;14.660;2022-09-09T09:51:37;97546.94;;;29.22;43.01
71915;BME280;60387;49.994;14.660;2022-09-09T09:56:46;97544.91;;;29.65;42.18
71915;BME280;60387;49.994;14.660;2022-09-09T10:02:23;97536.19;;;30.18;37.74
71915;BME280;60387;49.994;14.660;2022-09-09T10:05:01;97531.31;;;30.22;39.55
71915;BME280;60387;49.994;14.660;2022-09-09T10:07:35;97533.50;;;30.31;40.00
71915;BME280;60387;49.994;14.660;2022-09-09T10:10:20;97537.78;;;30.35;39.25
71915;BME280;60387;49.994;14.660;2022-09-09T10:13:10;97527.81;;;30.18;40.17
71915;BME280;60387;49.994;14.660;2022-09-09T10:19:36;97516.75;;;29.95;41.39
71915;BME280;60387;49.994;14.660;2022-09-09T10:33:50;97516.16;;;30.87;38.05
71915;BME280;60387;49.994;14.660;2022-09-09T10:36:25;97515.03;;;31.13;36.67
71915;BME280;60387;49.994;14.660;2022-09-09T10:39:04;97517.31;;;31.34;34.85
71915;BME280;60387;49.994;14.660;2022-09-09T10:45:10;97501.16;;;31.66;32.72
71915;BME280;60387;49.994;14.660;2022-09-09T10:50:48;97514.59;;;32.00;33.98
71915;BME280;60387;49.994;14.660;2022-09-09T10:56:21;97520.00;;;32.32;32.10
71915;BME280;60387;49.994;14.660;2022-09-09T11:01:43;97516.53;;;32.53;32.67
71915;BME280;60387;49.994;14.660;2022-09-09T11:04:33;97511.69;;;32.66;28.95
71915;BME280;60387;49.994;14.660;2022-09-09T11:07:15;97504.63;;;32.74;29.14
71915;BME280;60387;49.994;14.660;2022-09-09T11:09:59;97493.97;;;32.81;31.73
71915;BME280;60387;49.994;14.660;2022-09-09T11:12:36;97505.28;;;32.90;28.43
71915;BME280;60387;49.994;14.660;2022-09-09T11:15:25;97509.84;;;32.97;30.05
71915;BME280;60387;49.994;14.660;2022-09-09T11:18:01;97499.66;;;32.90;28.64
71915;BME280;60387;49.994;14.660;2022-09-09T11:20:37;97491.28;;;32.65;30.97
71915;BME280;60387;49.994;14.660;2022-09-09T11:23:18;97498.47;;;32.54;30.76
71915;BME280;60387;49.994;14.660;2022-09-09T11:26:00;97480.72;;;32.57;31.65
71915;BME280;60387;49.994;14.660;2022-09-09T11:37:47;97492.34;;;32.68;28.22
71915;BME280;60387;49.994;14.660;2022-09-09T11:40:27;97496.41;;;32.67;27.70
71915;BME280;60387;49.994;14.660;2022-09-09T11:43:12;97502.72;;;32.58;29.16
71915;BME280;60387;49.994;14.660;2022-09-09T11:45:52;97475.22;;;32.53;29.69
71915;BME280;60387;49.994;14.660;2022-09-09T11:48:34;97469.59;;;32.66;28.52
71915;BME280;60387;49.994;14.660;2022-09-09T11:51:10;97475.78;;;32.73;27.93
71915;BME280;60387;49.994;14.660;2022-09-09T11:53:55;97495.06;;;32.71;28.66
71915;BME280;60387;49.994;14.660;2022-09-09T11:59:33;97479.47;;;32.70;28.00
71915;BME280;60387;49.994;14.660;2022-09-09T12:07:56;97482.53;;;32.13;29.71
71915;BME280;60387;49.994;14.660;2022-09-09T12:10:32;97484.31;;;31.95;29.86
71915;BME280;60387;49.994;14.660;2022-09-09T12:13:17;97468.59;;;31.72;30.48
71915;BME280;60387;49.994;14.660;2022-09-09T12:15:58;97476.34;;;31.52;30.82
71915;BME280;60387;49.994;14.660;2022-09-09T12:18:37;97477.41;;;31.30;31.20
71915;BME280;60387;49.994;14.660;2022-09-09T12:24:17;97465.19;;;30.80;30.90
71915;BME280;60387;49.994;14.660;2022-09-09T12:29:51;97475.94;;;30.33;31.32
71915;BME280;60387;49.994;14.660;2022-09-09T12:32:28;97468.84;;;30.13;30.50
71915;BME280;60387;49.994;14.660;2022-09-09T12:35:20;97460.94;;;29.92;31.33
71915;BME280;60387;49.994;14.660;2022-09-09T12:37:58;97457.84;;;29.70;30.39
71915;BME280;60387;49.994;14.660;2022-09-09T12:40:34;97464.72;;;29.46;30.02
71915;BME280;60387;49.994;14.660;2022-09-09T12:43:22;97464.88;;;29.20;32.49
71915;BME280;60387;49.994;14.660;2022-09-09T12:46:02;97474.78;;;29.01;32.76
71915;BME280;60387;49.994;14.660;2022-09-09T12:48:39;97472.25;;;28.87;33.34
71915;BME280;60387;49.994;14.660;2022-09-09T12:51:39;97481.66;;;28.74;33.37
71915;BME280;60387;49.994;14.660;2022-09-09T12:54:16;97483.53;;;28.57;33.78
71915;BME280;60387;49.994;14.660;2022-09-09T12:56:49;97487.06;;;28.38;33.80
71915;BME280;60387;49.994;14.660;2022-09-09T12:59:35;97480.16;;;28.20;34.33
71915;BME280;60387;49.994;14.660;2022-09-09T13:02:16;97495.09;;;28.06;34.59
71915;BME280;60387;49.994;14.660;2022-09-09T13:04:51;97496.88;;;27.93;34.58
71915;BME280;60387;49.994;14.660;2022-09-09T13:07:24;97497.94;;;27.76;36.14
71915;BME280;60387;49.994;14.660;2022-09-09T13:09:58;97510.50;;;27.54;36.67
71915;BME280;60387;49.994;14.660;2022-09-09T13:12:31;97507.16;;;27.36;37.49
71915;BME280;60387;49.994;14.660;2022-09-09T13:15:12;97505.41;;;27.13;38.38
71915;BME280;60387;49.994;14.660;2022-09-09T13:17:51;97504.84;;;26.91;38.94
71915;BME280;60387;49.994;14.660;2022-09-09T13:20:26;97510.69;;;26.63;39.94
71915;BME280;60387;49.994;14.660;2022-09-09T13:23:00;97508.53;;;26.30;40.29
71915;BME280;60387;49.994;14.660;2022-09-09T13:25:33;97498.50;;;25.96;41.51
71915;BME280;60387;49.994;14.660;2022-09-09T13:28:20;97495.47;;;25.62;41.57
71915;BME280;60387;49.994;14.660;2022-09-09T13:31:18;97487.75;;;25.22;41.45
71915;BME280;60387;49.994;14.660;2022-09-09T13:33:52;97498.47;;;25.10;41.88
71915;BME280;60387;49.994;14.660;2022-09-09T13:36:34;97492.19;;;24.88;41.94
71915;BME280;60387;49.994;14.660;2022-09-09T13:39:18;97499.72;;;24.81;42.27
71915;BME280;60387;49.994;14.660;2022-09-09T13:41:51;97497.75;;;24.78;42.11
71915;BME280;60387;49.994;14.660;2022-09-09T13:44:30;97489.44;;;24.74;42.06
71915;BME280;60387;49.994;14.660;2022-09-09T13:47:06;97485.47;;;24.72;42.64
71915;BME280;60387;49.994;14.660;2022-09-09T13:49:50;97479.16;;;24.71;42.10
71915;BME280;60387;49.994;14.660;2022-09-09T13:52:23;97474.00;;;24.70;42.17
71915;BME280;60387;49.994;14.660;2022-09-09T13:54:57;97473.63;;;24.71;43.21
71915;BME280;60387;49.994;14.660;2022-09-09T13:57:30;97465.69;;;24.70;43.21
71915;BME280;60387;49.994;14.660;2022-09-09T14:00:04;97466.88;;;24.69;43.30
71915;BME280;60387;49.994;14.660;2022-09-09T14:02:38;97475.59;;;24.71;43.67
71915;BME280;60387;49.994;14.660;2022-09-09T14:05:12;97473.22;;;24.66;43.65
71915;BME280;60387;49.994;14.660;2022-09-09T14:07:45;97464.91;;;24.62;44.07
71915;BME280;60387;49.994;14.660;2022-09-09T14:10:19;97465.72;;;24.59;44.67
71915;BME280;60387;49.994;14.660;2022-09-09T14:12:52;97455.78;;;24.51;44.39
71915;BME280;60387;49.994;14.660;2022-09-09T14:15:25;97460.16;;;24.49;44.14
71915;BME280;60387;49.994;14.660;2022-09-09T14:17:59;97445.13;;;24.39;44.43
71915;BME280;60387;49.994;14.660;2022-09-09T14:20:32;97458.97;;;24.50;44.97
71915;BME280;60387;49.994;14.660;2022-09-09T14:23:05;97454.59;;;24.49;44.80
71915;BME280;60387;49.994;14.660;2022-09-09T14:25:40;97450.66;;;24.50;44.77
71915;BME280;60387;49.994;14.660;2022-09-09T14:28:14;97443.94;;;24.47;44.67
71915;BME280;60387;49.994;14.660;2022-09-09T14:30:47;97437.22;;;24.45;44.57
71915;BME280;60387;49.994;14.660;2022-09-09T14:33:20;97435.63;;;24.37;45.00
71915;BME280;60387;49.994;14.660;2022-09-09T14:35:57;97435.63;;;24.37;45.07
71915;BME280;60387;49.994;14.660;2022-09-09T14:38:34;97437.59;;;24.36;45.24
71915;BME280;60387;49.994;14.660;2022-09-09T14:41:13;97434.84;;;24.36;44.97
71915;BME280;60387;49.994;14.660;2022-09-09T14:43:47;97418.25;;;24.33;44.73
71915;BME280;60387;49.994;14.660;2022-09-09T14:46:20;97416.25;;;24.37;45.03
71915;BME280;60387;49.994;14.660;2022-09-09T14:48:54;97423.75;;;24.40;45.29
71915;BME280;60387;49.994;14.660;2022-09-09T14:51:27;97422.19;;;24.46;45.48
71915;BME280;60387;49.994;14.660;2022-09-09T14:54:00;97420.22;;;24.50;45.28
71915;BME280;60387;49.994;14.660;2022-09-09T14:56:34;97426.16;;;24.59;45.06
71915;BME280;60387;49.994;14.660;2022-09-09T14:59:07;97426.53;;;24.61;45.22
71915;BME280;60387;49.994;14.660;2022-09-09T15:01:40;97429.69;;;24.63;45.11
71915;BME280;60387;49.994;14.660;2022-09-09T15:04:14;97428.09;;;24.65;45.55
71915;BME280;60387;49.994;14.660;2022-09-09T15:06:47;97425.72;;;24.60;45.53
71915;BME280;60387;49.994;14.660;2022-09-09T15:09:20;97422.19;;;24.60;45.21